< < Back
Terminal Aerodrome Forecast


Current Version              Previous Versions:   1  2  3  4  5  6  7  8  9  

Terminal Aerodrome Forecast

014
FTUS44 KBMX 301720
TAFMGM
TAF
KMGM 301720Z 3018/3118 34008KT P6SM VCTS SCT040CB
      TEMPO 3022/3024 VRB10G20KT 3SM TSRA BKN040CB BKN100
     FM310000 36005KT P6SM VCTS SCT050CB SCT150
     FM310300 35005KT P6SM SCT200=

Latest METAR

051
SAUS80 KWBC 310100
MTRMGM
METAR KMGM 310053Z 12008KT 10SM CLR 28/24 A2992 RMK AO2 SLP130
T02780244


USA.gov is the U.S. government's official web portal to all federal, state and local government web resources and services.